createdAt,value
2022-10-13T00:13:29.949Z,1023.54
2022-10-13T00:42:10.450Z,1023.42
2022-10-13T01:10:49.772Z,1023.21
2022-10-13T01:39:31.229Z,1023.29
2022-10-13T02:08:08.104Z,1023.39
2022-10-13T02:36:55.702Z,1023.4
2022-10-13T03:05:34.922Z,1022.99
2022-10-13T03:34:15.010Z,1022.87
2022-10-13T04:31:15.875Z,1022.55
2022-10-13T04:59:54.651Z,1022.51
2022-10-13T05:28:32.515Z,1022.41
2022-10-13T05:57:10.889Z,1022.59
2022-10-13T06:25:43.247Z,1022.49
2022-10-13T06:54:10.988Z,1022.4
2022-10-13T07:22:42.468Z,1022.5
2022-10-13T07:51:17.154Z,1022.37
2022-10-13T08:19:52.313Z,1022.27
2022-10-13T08:48:13.155Z,1022.14
2022-10-13T09:16:43.821Z,1022.15
2022-10-13T09:45:21.249Z,1022.06
2022-10-13T10:13:40.548Z,1022.13
2022-10-13T10:42:04.072Z,1021.97
2022-10-13T11:10:33.428Z,1021.33
2022-10-13T11:39:00.308Z,1021.37
2022-10-13T12:07:54.705Z,1020.86
2022-10-13T12:36:07.878Z,1020.67
2022-10-13T13:04:33.996Z,1020.55
2022-10-13T13:33:05.477Z,1020.47
2022-10-13T14:30:08.740Z,1020.3
2022-10-13T15:29:02.601Z,1020.27
2022-10-13T15:56:56.271Z,1020.17
2022-10-13T16:25:16.336Z,1020.15
2022-10-13T17:28:07.411Z,1020.4
2022-10-13T18:25:33.974Z,1020.51
2022-10-13T19:22:36.160Z,1020.65
2022-10-13T19:51:22.567Z,1020.78
2022-10-13T20:52:29.655Z,1020.61
2022-10-13T21:21:22.645Z,1020.65
2022-10-13T21:49:57.739Z,1020.73
2022-10-13T22:18:24.237Z,1020.69
2022-10-13T22:46:43.628Z,1020.65
2022-10-13T23:15:21.350Z,1020.35
2022-10-13T23:43:47.269Z,1020.27
